Terminal Aerodrome Forecast
Issued by NWS

Home | Current Version | Previous Version | Text Only | Print | Product List | Glossary On
Versions: 1 2 3 4 5 6 7 8 9 10 11 12 13
000
FTUS42 KMLB 040528
TAFTIX
TAF
KTIX 040528Z 0406/0506 07005KT P6SM SCT040 BKN250
     FM041400 07012KT P6SM SCT040 SCT250
     FM041700 08017G24KT P6SM SCT050 SCT250
     FM050000 07009KT P6SM SCT040 SCT250
      AMD NOT SKED TIL 041200=

USA.gov is the U.S. government's official web portal to all federal, state and local government web resources and services.